sensor_id;sensor_type;location;lat;lon;timestamp;P1;durP1;ratioP1;P2;durP2;ratioP2
54197;SDS011;40105;52.366;17.000;2023-05-19T00:01:18;2.13;;;1.05;;
54197;SDS011;40105;52.366;17.000;2023-05-19T00:03:50;7.35;;;1.48;;
54197;SDS011;40105;52.366;17.000;2023-05-19T00:06:17;13.63;;;1.30;;
54197;SDS011;40105;52.366;17.000;2023-05-19T00:08:45;3.53;;;1.20;;
54197;SDS011;40105;52.366;17.000;2023-05-19T00:11:10;2.40;;;1.23;;
54197;SDS011;40105;52.366;17.000;2023-05-19T00:13:36;4.68;;;1.55;;
54197;SDS011;40105;52.366;17.000;2023-05-19T00:16:01;8.07;;;1.30;;
54197;SDS011;40105;52.366;17.000;2023-05-19T00:18:26;2.87;;;1.27;;
54197;SDS011;40105;52.366;17.000;2023-05-19T00:20:53;6.07;;;1.35;;
54197;SDS011;40105;52.366;17.000;2023-05-19T00:23:18;2.70;;;1.10;;
54197;SDS011;40105;52.366;17.000;2023-05-19T00:25:43;9.60;;;1.93;;
54197;SDS011;40105;52.366;17.000;2023-05-19T00:28:09;6.55;;;1.33;;
54197;SDS011;40105;52.366;17.000;2023-05-19T00:30:34;6.23;;;1.43;;
54197;SDS011;40105;52.366;17.000;2023-05-19T00:32:59;3.03;;;1.13;;
54197;SDS011;40105;52.366;17.000;2023-05-19T00:35:24;2.63;;;1.10;;
54197;SDS011;40105;52.366;17.000;2023-05-19T00:37:50;3.60;;;1.30;;
54197;SDS011;40105;52.366;17.000;2023-05-19T00:40:15;5.80;;;1.30;;
54197;SDS011;40105;52.366;17.000;2023-05-19T00:42:40;4.10;;;1.10;;
54197;SDS011;40105;52.366;17.000;2023-05-19T00:45:05;2.93;;;1.20;;
54197;SDS011;40105;52.366;17.000;2023-05-19T00:47:31;5.53;;;1.52;;
54197;SDS011;40105;52.366;17.000;2023-05-19T00:49:56;3.90;;;1.33;;
54197;SDS011;40105;52.366;17.000;2023-05-19T00:52:21;13.37;;;2.33;;
54197;SDS011;40105;52.366;17.000;2023-05-19T00:54:46;4.80;;;1.30;;
54197;SDS011;40105;52.366;17.000;2023-05-19T00:57:12;8.02;;;1.23;;
54197;SDS011;40105;52.366;17.000;2023-05-19T00:59:38;3.05;;;1.30;;
54197;SDS011;40105;52.366;17.000;2023-05-19T01:02:03;6.60;;;1.07;;
54197;SDS011;40105;52.366;17.000;2023-05-19T01:04:28;3.60;;;1.37;;
54197;SDS011;40105;52.366;17.000;2023-05-19T01:06:58;5.93;;;1.40;;
54197;SDS011;40105;52.366;17.000;2023-05-19T01:09:23;3.03;;;1.40;;
54197;SDS011;40105;52.366;17.000;2023-05-19T01:11:49;2.80;;;1.60;;
54197;SDS011;40105;52.366;17.000;2023-05-19T01:14:14;3.22;;;1.42;;
54197;SDS011;40105;52.366;17.000;2023-05-19T01:16:41;4.93;;;1.45;;
54197;SDS011;40105;52.366;17.000;2023-05-19T01:21:43;6.57;;;1.45;;
54197;SDS011;40105;52.366;17.000;2023-05-19T01:29:28;7.30;;;1.70;;
54197;SDS011;40105;52.366;17.000;2023-05-19T01:34:21;4.18;;;1.27;;
54197;SDS011;40105;52.366;17.000;2023-05-19T01:36:47;3.13;;;1.20;;
54197;SDS011;40105;52.366;17.000;2023-05-19T01:39:13;3.05;;;1.25;;
54197;SDS011;40105;52.366;17.000;2023-05-19T01:41:39;3.42;;;1.55;;
54197;SDS011;40105;52.366;17.000;2023-05-19T01:44:05;6.00;;;1.50;;
54197;SDS011;40105;52.366;17.000;2023-05-19T01:46:31;6.93;;;2.13;;
54197;SDS011;40105;52.366;17.000;2023-05-19T01:48:56;6.87;;;1.40;;
54197;SDS011;40105;52.366;17.000;2023-05-19T01:51:21;3.05;;;1.15;;
54197;SDS011;40105;52.366;17.000;2023-05-19T01:53:47;6.10;;;1.40;;
54197;SDS011;40105;52.366;17.000;2023-05-19T01:56:12;7.23;;;1.40;;
54197;SDS011;40105;52.366;17.000;2023-05-19T01:58:43;10.40;;;1.48;;
54197;SDS011;40105;52.366;17.000;2023-05-19T02:06:21;3.75;;;1.60;;
54197;SDS011;40105;52.366;17.000;2023-05-19T02:08:56;5.75;;;1.85;;
54197;SDS011;40105;52.366;17.000;2023-05-19T02:11:30;4.80;;;1.55;;
54197;SDS011;40105;52.366;17.000;2023-05-19T02:14:00;6.55;;;1.30;;
54197;SDS011;40105;52.366;17.000;2023-05-19T02:16:27;2.95;;;1.52;;
54197;SDS011;40105;52.366;17.000;2023-05-19T02:18:52;8.05;;;1.80;;
54197;SDS011;40105;52.366;17.000;2023-05-19T02:21:17;6.32;;;1.77;;
54197;SDS011;40105;52.366;17.000;2023-05-19T02:23:43;4.53;;;1.60;;
54197;SDS011;40105;52.366;17.000;2023-05-19T02:26:08;9.67;;;1.73;;
54197;SDS011;40105;52.366;17.000;2023-05-19T02:28:33;3.33;;;1.30;;
54197;SDS011;40105;52.366;17.000;2023-05-19T02:30:59;6.68;;;1.70;;
54197;SDS011;40105;52.366;17.000;2023-05-19T02:33:25;4.82;;;1.58;;
54197;SDS011;40105;52.366;17.000;2023-05-19T02:35:51;8.07;;;1.88;;
54197;SDS011;40105;52.366;17.000;2023-05-19T02:38:16;3.38;;;1.33;;
54197;SDS011;40105;52.366;17.000;2023-05-19T02:40:42;5.32;;;1.63;;
54197;SDS011;40105;52.366;17.000;2023-05-19T02:43:07;4.27;;;1.40;;
54197;SDS011;40105;52.366;17.000;2023-05-19T02:45:32;3.40;;;1.10;;
54197;SDS011;40105;52.366;17.000;2023-05-19T02:47:58;3.80;;;1.63;;
54197;SDS011;40105;52.366;17.000;2023-05-19T02:50:23;6.70;;;2.08;;
54197;SDS011;40105;52.366;17.000;2023-05-19T02:52:48;3.03;;;1.42;;
54197;SDS011;40105;52.366;17.000;2023-05-19T02:55:13;8.65;;;2.03;;
54197;SDS011;40105;52.366;17.000;2023-05-19T02:57:41;5.38;;;1.70;;
54197;SDS011;40105;52.366;17.000;2023-05-19T03:00:06;3.87;;;1.47;;
54197;SDS011;40105;52.366;17.000;2023-05-19T03:02:31;4.03;;;1.67;;
54197;SDS011;40105;52.366;17.000;2023-05-19T03:04:58;3.95;;;1.60;;
54197;SDS011;40105;52.366;17.000;2023-05-19T03:07:25;14.50;;;2.10;;
54197;SDS011;40105;52.366;17.000;2023-05-19T03:09:50;3.97;;;1.37;;
54197;SDS011;40105;52.366;17.000;2023-05-19T03:12:16;6.45;;;1.83;;
54197;SDS011;40105;52.366;17.000;2023-05-19T03:14:41;3.40;;;1.60;;
54197;SDS011;40105;52.366;17.000;2023-05-19T03:17:07;3.85;;;1.73;;
54197;SDS011;40105;52.366;17.000;2023-05-19T03:19:34;4.93;;;1.73;;
54197;SDS011;40105;52.366;17.000;2023-05-19T03:21:59;5.90;;;2.20;;
54197;SDS011;40105;52.366;17.000;2023-05-19T03:24:24;3.60;;;2.03;;
54197;SDS011;40105;52.366;17.000;2023-05-19T03:26:49;5.97;;;1.70;;
54197;SDS011;40105;52.366;17.000;2023-05-19T03:29:15;6.05;;;1.70;;
54197;SDS011;40105;52.366;17.000;2023-05-19T03:31:41;10.13;;;2.07;;
54197;SDS011;40105;52.366;17.000;2023-05-19T03:34:06;7.35;;;2.30;;
54197;SDS011;40105;52.366;17.000;2023-05-19T03:36:31;7.63;;;2.43;;
54197;SDS011;40105;52.366;17.000;2023-05-19T03:38:59;6.50;;;2.40;;
54197;SDS011;40105;52.366;17.000;2023-05-19T03:41:24;7.05;;;3.25;;
54197;SDS011;40105;52.366;17.000;2023-05-19T03:43:50;5.65;;;2.08;;
54197;SDS011;40105;52.366;17.000;2023-05-19T03:46:15;5.83;;;2.17;;
54197;SDS011;40105;52.366;17.000;2023-05-19T03:48:40;4.40;;;1.90;;
54197;SDS011;40105;52.366;17.000;2023-05-19T03:51:05;6.82;;;2.50;;
54197;SDS011;40105;52.366;17.000;2023-05-19T03:53:31;7.55;;;2.45;;
54197;SDS011;40105;52.366;17.000;2023-05-19T03:55:56;3.97;;;1.97;;
54197;SDS011;40105;52.366;17.000;2023-05-19T03:58:21;8.10;;;2.93;;
54197;SDS011;40105;52.366;17.000;2023-05-19T04:00:46;7.13;;;2.10;;
54197;SDS011;40105;52.366;17.000;2023-05-19T04:03:11;9.13;;;2.27;;
54197;SDS011;40105;52.366;17.000;2023-05-19T04:05:37;13.63;;;2.77;;
54197;SDS011;40105;52.366;17.000;2023-05-19T04:08:02;9.13;;;3.03;;
54197;SDS011;40105;52.366;17.000;2023-05-19T04:10:28;7.97;;;2.87;;
54197;SDS011;40105;52.366;17.000;2023-05-19T04:12:53;13.60;;;2.43;;
54197;SDS011;40105;52.366;17.000;2023-05-19T04:15:18;6.43;;;2.83;;
54197;SDS011;40105;52.366;17.000;2023-05-19T04:17:43;10.57;;;2.83;;
54197;SDS011;40105;52.366;17.000;2023-05-19T04:20:08;7.33;;;2.77;;
54197;SDS011;40105;52.366;17.000;2023-05-19T04:22:34;10.50;;;2.35;;
54197;SDS011;40105;52.366;17.000;2023-05-19T04:24:59;9.10;;;2.77;;
54197;SDS011;40105;52.366;17.000;2023-05-19T04:27:24;5.23;;;2.27;;
54197;SDS011;40105;52.366;17.000;2023-05-19T04:29:51;4.78;;;2.10;;
54197;SDS011;40105;52.366;17.000;2023-05-19T04:32:16;8.63;;;2.93;;
54197;SDS011;40105;52.366;17.000;2023-05-19T04:34:42;4.65;;;2.30;;
54197;SDS011;40105;52.366;17.000;2023-05-19T04:37:11;7.82;;;2.92;;
54197;SDS011;40105;52.366;17.000;2023-05-19T04:39:36;13.60;;;2.60;;
54197;SDS011;40105;52.366;17.000;2023-05-19T04:42:04;5.30;;;2.47;;
54197;SDS011;40105;52.366;17.000;2023-05-19T04:44:29;14.13;;;2.85;;
54197;SDS011;40105;52.366;17.000;2023-05-19T04:46:55;14.85;;;3.00;;
54197;SDS011;40105;52.366;17.000;2023-05-19T04:49:22;10.73;;;3.13;;
54197;SDS011;40105;52.366;17.000;2023-05-19T04:51:48;13.20;;;3.67;;
54197;SDS011;40105;52.366;17.000;2023-05-19T04:54:14;9.10;;;3.22;;
54197;SDS011;40105;52.366;17.000;2023-05-19T04:56:39;12.30;;;3.93;;
54197;SDS011;40105;52.366;17.000;2023-05-19T04:59:06;8.68;;;3.30;;
54197;SDS011;40105;52.366;17.000;2023-05-19T05:01:31;6.60;;;2.63;;
54197;SDS011;40105;52.366;17.000;2023-05-19T05:03:57;6.88;;;2.78;;
54197;SDS011;40105;52.366;17.000;2023-05-19T05:06:23;6.13;;;2.37;;
54197;SDS011;40105;52.366;17.000;2023-05-19T05:08:48;6.15;;;2.40;;
54197;SDS011;40105;52.366;17.000;2023-05-19T05:11:14;6.43;;;2.00;;
54197;SDS011;40105;52.366;17.000;2023-05-19T05:13:39;6.35;;;2.20;;
54197;SDS011;40105;52.366;17.000;2023-05-19T05:16:04;14.80;;;2.25;;
54197;SDS011;40105;52.366;17.000;2023-05-19T05:18:30;4.80;;;2.35;;
54197;SDS011;40105;52.366;17.000;2023-05-19T05:20:55;5.35;;;2.22;;
54197;SDS011;40105;52.366;17.000;2023-05-19T05:23:21;5.95;;;2.58;;
54197;SDS011;40105;52.366;17.000;2023-05-19T05:25:46;11.73;;;3.38;;
54197;SDS011;40105;52.366;17.000;2023-05-19T05:28:11;6.03;;;2.45;;
54197;SDS011;40105;52.366;17.000;2023-05-19T05:30:37;6.70;;;2.17;;
54197;SDS011;40105;52.366;17.000;2023-05-19T05:33:02;7.90;;;2.33;;
54197;SDS011;40105;52.366;17.000;2023-05-19T05:35:27;21.90;;;3.47;;
54197;SDS011;40105;52.366;17.000;2023-05-19T05:37:52;9.57;;;2.20;;
54197;SDS011;40105;52.366;17.000;2023-05-19T05:40:18;4.37;;;2.30;;
54197;SDS011;40105;52.366;17.000;2023-05-19T05:42:43;5.67;;;2.43;;
54197;SDS011;40105;52.366;17.000;2023-05-19T05:45:08;22.77;;;3.03;;
54197;SDS011;40105;52.366;17.000;2023-05-19T05:47:33;23.47;;;3.30;;
54197;SDS011;40105;52.366;17.000;2023-05-19T05:50:02;7.32;;;2.17;;
54197;SDS011;40105;52.366;17.000;2023-05-19T05:52:28;10.73;;;2.50;;
54197;SDS011;40105;52.366;17.000;2023-05-19T05:54:54;11.85;;;2.53;;
54197;SDS011;40105;52.366;17.000;2023-05-19T05:57:19;13.52;;;2.67;;
54197;SDS011;40105;52.366;17.000;2023-05-19T05:59:45;12.75;;;2.22;;
54197;SDS011;40105;52.366;17.000;2023-05-19T06:02:11;26.05;;;3.15;;
54197;SDS011;40105;52.366;17.000;2023-05-19T06:04:36;6.07;;;2.70;;
54197;SDS011;40105;52.366;17.000;2023-05-19T06:07:01;6.50;;;2.77;;
54197;SDS011;40105;52.366;17.000;2023-05-19T06:09:26;15.88;;;3.53;;
54197;SDS011;40105;52.366;17.000;2023-05-19T06:11:52;12.93;;;2.75;;
54197;SDS011;40105;52.366;17.000;2023-05-19T06:14:17;4.03;;;1.95;;
54197;SDS011;40105;52.366;17.000;2023-05-19T06:16:42;10.70;;;2.13;;
54197;SDS011;40105;52.366;17.000;2023-05-19T06:19:08;16.03;;;2.30;;
54197;SDS011;40105;52.366;17.000;2023-05-19T06:21:33;5.22;;;2.20;;
54197;SDS011;40105;52.366;17.000;2023-05-19T06:23:58;4.83;;;2.53;;
54197;SDS011;40105;52.366;17.000;2023-05-19T06:26:24;8.90;;;2.37;;
54197;SDS011;40105;52.366;17.000;2023-05-19T06:28:49;7.43;;;2.50;;
54197;SDS011;40105;52.366;17.000;2023-05-19T06:31:14;8.13;;;3.00;;
54197;SDS011;40105;52.366;17.000;2023-05-19T06:33:40;8.52;;;2.63;;
54197;SDS011;40105;52.366;17.000;2023-05-19T06:36:05;6.40;;;2.07;;
54197;SDS011;40105;52.366;17.000;2023-05-19T06:38:32;5.75;;;2.42;;
54197;SDS011;40105;52.366;17.000;2023-05-19T06:40:57;9.87;;;3.17;;
54197;SDS011;40105;52.366;17.000;2023-05-19T06:43:22;14.50;;;2.97;;
54197;SDS011;40105;52.366;17.000;2023-05-19T06:45:49;5.32;;;2.53;;
54197;SDS011;40105;52.366;17.000;2023-05-19T06:48:14;5.70;;;2.40;;
54197;SDS011;40105;52.366;17.000;2023-05-19T06:50:40;6.70;;;2.67;;
54197;SDS011;40105;52.366;17.000;2023-05-19T06:53:05;4.97;;;2.33;;
54197;SDS011;40105;52.366;17.000;2023-05-19T06:55:30;10.67;;;2.77;;
54197;SDS011;40105;52.366;17.000;2023-05-19T06:57:56;25.85;;;3.08;;
54197;SDS011;40105;52.366;17.000;2023-05-19T07:00:21;6.90;;;2.37;;
54197;SDS011;40105;52.366;17.000;2023-05-19T07:02:46;11.07;;;2.60;;
54197;SDS011;40105;52.366;17.000;2023-05-19T07:05:11;9.53;;;2.27;;
54197;SDS011;40105;52.366;17.000;2023-05-19T07:07:36;17.03;;;3.23;;
54197;SDS011;40105;52.366;17.000;2023-05-19T07:10:02;6.27;;;2.67;;
54197;SDS011;40105;52.366;17.000;2023-05-19T07:12:27;7.70;;;3.00;;
54197;SDS011;40105;52.366;17.000;2023-05-19T07:14:52;9.18;;;3.17;;
54197;SDS011;40105;52.366;17.000;2023-05-19T07:17:17;17.23;;;3.30;;
54197;SDS011;40105;52.366;17.000;2023-05-19T07:19:42;12.00;;;3.00;;
54197;SDS011;40105;52.366;17.000;2023-05-19T07:22:07;20.25;;;3.53;;
54197;SDS011;40105;52.366;17.000;2023-05-19T07:24:33;11.20;;;3.13;;
54197;SDS011;40105;52.366;17.000;2023-05-19T07:26:58;12.73;;;3.33;;
54197;SDS011;40105;52.366;17.000;2023-05-19T07:29:23;10.17;;;3.17;;
54197;SDS011;40105;52.366;17.000;2023-05-19T07:31:48;9.93;;;2.77;;
54197;SDS011;40105;52.366;17.000;2023-05-19T07:34:18;7.55;;;3.08;;
54197;SDS011;40105;52.366;17.000;2023-05-19T07:36:43;5.53;;;2.80;;
54197;SDS011;40105;52.366;17.000;2023-05-19T07:39:08;8.67;;;3.20;;
54197;SDS011;40105;52.366;17.000;2023-05-19T07:41:33;8.93;;;3.23;;
54197;SDS011;40105;52.366;17.000;2023-05-19T07:43:58;12.90;;;3.93;;
54197;SDS011;40105;52.366;17.000;2023-05-19T07:46:23;9.90;;;2.80;;
54197;SDS011;40105;52.366;17.000;2023-05-19T07:48:49;11.40;;;3.00;;
54197;SDS011;40105;52.366;17.000;2023-05-19T07:51:14;8.30;;;2.83;;
54197;SDS011;40105;52.366;17.000;2023-05-19T07:53:40;16.80;;;2.60;;
54197;SDS011;40105;52.366;17.000;2023-05-19T07:56:05;6.93;;;2.70;;
54197;SDS011;40105;52.366;17.000;2023-05-19T07:58:30;6.65;;;2.75;;
54197;SDS011;40105;52.366;17.000;2023-05-19T08:00:56;13.83;;;3.37;;
54197;SDS011;40105;52.366;17.000;2023-05-19T08:03:21;7.18;;;2.95;;
54197;SDS011;40105;52.366;17.000;2023-05-19T08:05:47;16.90;;;3.08;;
54197;SDS011;40105;52.366;17.000;2023-05-19T08:08:12;10.17;;;2.83;;
54197;SDS011;40105;52.366;17.000;2023-05-19T08:10:40;8.18;;;2.88;;
54197;SDS011;40105;52.366;17.000;2023-05-19T08:13:05;15.03;;;3.03;;
54197;SDS011;40105;52.366;17.000;2023-05-19T08:15:30;6.57;;;2.63;;
54197;SDS011;40105;52.366;17.000;2023-05-19T08:17:55;22.13;;;3.77;;
54197;SDS011;40105;52.366;17.000;2023-05-19T08:20:21;11.53;;;3.63;;
54197;SDS011;40105;52.366;17.000;2023-05-19T08:22:47;6.13;;;2.60;;
54197;SDS011;40105;52.366;17.000;2023-05-19T08:25:12;9.47;;;3.10;;
54197;SDS011;40105;52.366;17.000;2023-05-19T08:27:38;8.87;;;3.27;;
54197;SDS011;40105;52.366;17.000;2023-05-19T08:30:03;12.93;;;3.00;;
54197;SDS011;40105;52.366;17.000;2023-05-19T08:32:28;20.08;;;3.63;;
54197;SDS011;40105;52.366;17.000;2023-05-19T08:34:53;11.33;;;3.10;;
54197;SDS011;40105;52.366;17.000;2023-05-19T08:37:19;10.27;;;3.10;;
54197;SDS011;40105;52.366;17.000;2023-05-19T08:39:44;8.53;;;3.17;;
54197;SDS011;40105;52.366;17.000;2023-05-19T08:42:09;16.30;;;3.67;;
54197;SDS011;40105;52.366;17.000;2023-05-19T08:44:36;8.52;;;3.15;;
54197;SDS011;40105;52.366;17.000;2023-05-19T08:47:02;6.50;;;3.30;;
54197;SDS011;40105;52.366;17.000;2023-05-19T08:49:30;5.90;;;2.45;;
54197;SDS011;40105;52.366;17.000;2023-05-19T08:52:08;8.55;;;2.70;;
54197;SDS011;40105;52.366;17.000;2023-05-19T08:54:39;12.90;;;2.80;;
54197;SDS011;40105;52.366;17.000;2023-05-19T08:57:05;6.35;;;2.67;;
54197;SDS011;40105;52.366;17.000;2023-05-19T08:59:31;5.45;;;2.30;;
54197;SDS011;40105;52.366;17.000;2023-05-19T09:01:57;14.93;;;2.67;;
54197;SDS011;40105;52.366;17.000;2023-05-19T09:04:22;5.90;;;2.60;;
54197;SDS011;40105;52.366;17.000;2023-05-19T09:06:48;8.32;;;2.95;;
54197;SDS011;40105;52.366;17.000;2023-05-19T09:09:14;7.18;;;2.78;;
54197;SDS011;40105;52.366;17.000;2023-05-19T09:11:39;7.78;;;4.05;;
54197;SDS011;40105;52.366;17.000;2023-05-19T09:14:05;4.63;;;2.97;;
54197;SDS011;40105;52.366;17.000;2023-05-19T09:16:30;27.23;;;3.20;;
54197;SDS011;40105;52.366;17.000;2023-05-19T09:18:56;10.27;;;2.78;;
54197;SDS011;40105;52.366;17.000;2023-05-19T09:21:31;15.48;;;2.92;;
54197;SDS011;40105;52.366;17.000;2023-05-19T09:23:56;17.17;;;3.40;;
54197;SDS011;40105;52.366;17.000;2023-05-19T09:26:23;9.57;;;3.05;;
54197;SDS011;40105;52.366;17.000;2023-05-19T09:28:48;7.93;;;2.88;;
54197;SDS011;40105;52.366;17.000;2023-05-19T09:31:13;12.37;;;2.93;;
54197;SDS011;40105;52.366;17.000;2023-05-19T09:33:39;15.17;;;3.00;;
54197;SDS011;40105;52.366;17.000;2023-05-19T09:36:06;7.50;;;1.98;;
54197;SDS011;40105;52.366;17.000;2023-05-19T09:38:35;17.27;;;3.08;;
54197;SDS011;40105;52.366;17.000;2023-05-19T09:41:01;7.85;;;3.08;;
54197;SDS011;40105;52.366;17.000;2023-05-19T09:43:27;13.63;;;3.72;;
54197;SDS011;40105;52.366;17.000;2023-05-19T09:45:59;8.70;;;3.30;;
54197;SDS011;40105;52.366;17.000;2023-05-19T09:48:27;9.32;;;3.10;;
54197;SDS011;40105;52.366;17.000;2023-05-19T09:50:53;6.47;;;2.57;;
54197;SDS011;40105;52.366;17.000;2023-05-19T09:53:18;21.25;;;3.58;;
54197;SDS011;40105;52.366;17.000;2023-05-19T09:55:44;9.05;;;3.08;;
54197;SDS011;40105;52.366;17.000;2023-05-19T09:58:09;7.63;;;3.03;;
54197;SDS011;40105;52.366;17.000;2023-05-19T10:00:40;11.60;;;2.53;;
54197;SDS011;40105;52.366;17.000;2023-05-19T10:03:05;7.03;;;3.25;;
54197;SDS011;40105;52.366;17.000;2023-05-19T10:05:30;9.32;;;2.88;;
54197;SDS011;40105;52.366;17.000;2023-05-19T10:07:56;5.03;;;2.90;;
54197;SDS011;40105;52.366;17.000;2023-05-19T10:10:21;8.53;;;3.07;;
54197;SDS011;40105;52.366;17.000;2023-05-19T10:12:47;13.65;;;3.75;;
54197;SDS011;40105;52.366;17.000;2023-05-19T10:15:13;17.60;;;2.75;;
54197;SDS011;40105;52.366;17.000;2023-05-19T10:17:39;15.98;;;2.47;;
54197;SDS011;40105;52.366;17.000;2023-05-19T10:20:14;2.65;;;1.70;;
54197;SDS011;40105;52.366;17.000;2023-05-19T10:22:40;9.45;;;1.80;;
54197;SDS011;40105;52.366;17.000;2023-05-19T10:25:05;5.68;;;1.95;;
54197;SDS011;40105;52.366;17.000;2023-05-19T10:27:31;5.47;;;1.20;;
54197;SDS011;40105;52.366;17.000;2023-05-19T10:29:59;6.88;;;1.60;;
54197;SDS011;40105;52.366;17.000;2023-05-19T10:32:28;4.00;;;1.70;;
54197;SDS011;40105;52.366;17.000;2023-05-19T10:37:40;7.07;;;2.22;;
54197;SDS011;40105;52.366;17.000;2023-05-19T10:40:08;17.45;;;2.10;;
54197;SDS011;40105;52.366;17.000;2023-05-19T10:42:41;11.55;;;1.95;;
54197;SDS011;40105;52.366;17.000;2023-05-19T10:47:38;4.78;;;1.40;;
54197;SDS011;40105;52.366;17.000;2023-05-19T10:50:04;4.35;;;1.85;;
54197;SDS011;40105;52.366;17.000;2023-05-19T10:52:30;5.35;;;1.80;;
54197;SDS011;40105;52.366;17.000;2023-05-19T10:55:00;4.28;;;1.60;;
54197;SDS011;40105;52.366;17.000;2023-05-19T10:57:26;10.13;;;1.80;;
54197;SDS011;40105;52.366;17.000;2023-05-19T10:59:56;3.97;;;1.92;;
54197;SDS011;40105;52.366;17.000;2023-05-19T11:05:06;7.18;;;2.10;;
54197;SDS011;40105;52.366;17.000;2023-05-19T11:07:33;10.68;;;2.22;;
54197;SDS011;40105;52.366;17.000;2023-05-19T11:09:58;7.10;;;1.90;;
54197;SDS011;40105;52.366;17.000;2023-05-19T11:12:23;3.93;;;1.70;;
54197;SDS011;40105;52.366;17.000;2023-05-19T11:14:51;32.40;;;2.60;;
54197;SDS011;40105;52.366;17.000;2023-05-19T11:17:17;7.82;;;2.33;;
54197;SDS011;40105;52.366;17.000;2023-05-19T11:19:54;4.70;;;2.30;;
54197;SDS011;40105;52.366;17.000;2023-05-19T11:22:23;6.75;;;2.67;;
54197;SDS011;40105;52.366;17.000;2023-05-19T11:24:54;14.05;;;2.83;;
54197;SDS011;40105;52.366;17.000;2023-05-19T11:27:33;6.57;;;2.13;;
54197;SDS011;40105;52.366;17.000;2023-05-19T11:29:59;11.57;;;2.17;;
54197;SDS011;40105;52.366;17.000;2023-05-19T11:32:27;5.30;;;2.05;;
54197;SDS011;40105;52.366;17.000;2023-05-19T11:34:52;6.35;;;2.42;;
54197;SDS011;40105;52.366;17.000;2023-05-19T11:37:18;8.05;;;2.30;;
54197;SDS011;40105;52.366;17.000;2023-05-19T11:39:44;4.13;;;1.70;;
54197;SDS011;40105;52.366;17.000;2023-05-19T11:42:10;6.65;;;2.05;;
54197;SDS011;40105;52.366;17.000;2023-05-19T11:44:35;8.82;;;2.25;;
54197;SDS011;40105;52.366;17.000;2023-05-19T11:47:02;4.35;;;1.98;;
54197;SDS011;40105;52.366;17.000;2023-05-19T11:49:28;5.55;;;2.00;;
54197;SDS011;40105;52.366;17.000;2023-05-19T11:51:53;8.07;;;2.43;;
54197;SDS011;40105;52.366;17.000;2023-05-19T11:54:18;3.43;;;1.67;;
54197;SDS011;40105;52.366;17.000;2023-05-19T11:56:43;4.57;;;1.50;;
54197;SDS011;40105;52.366;17.000;2023-05-19T11:59:10;5.97;;;2.15;;
54197;SDS011;40105;52.366;17.000;2023-05-19T12:01:35;12.15;;;2.58;;
54197;SDS011;40105;52.366;17.000;2023-05-19T12:04:00;15.33;;;2.63;;
54197;SDS011;40105;52.366;17.000;2023-05-19T12:06:26;16.58;;;3.03;;
54197;SDS011;40105;52.366;17.000;2023-05-19T12:08:53;19.20;;;2.22;;
54197;SDS011;40105;52.366;17.000;2023-05-19T12:11:18;5.85;;;2.05;;
54197;SDS011;40105;52.366;17.000;2023-05-19T12:13:43;11.10;;;2.73;;
54197;SDS011;40105;52.366;17.000;2023-05-19T12:16:08;7.40;;;2.70;;
54197;SDS011;40105;52.366;17.000;2023-05-19T12:18:37;13.23;;;2.07;;
54197;SDS011;40105;52.366;17.000;2023-05-19T12:21:03;6.50;;;2.65;;
54197;SDS011;40105;52.366;17.000;2023-05-19T12:23:28;8.85;;;2.25;;
54197;SDS011;40105;52.366;17.000;2023-05-19T12:25:57;8.35;;;2.13;;
54197;SDS011;40105;52.366;17.000;2023-05-19T12:28:22;10.35;;;2.45;;
54197;SDS011;40105;52.366;17.000;2023-05-19T12:30:48;7.13;;;1.90;;
54197;SDS011;40105;52.366;17.000;2023-05-19T12:33:15;5.65;;;2.22;;
54197;SDS011;40105;52.366;17.000;2023-05-19T12:35:41;11.18;;;3.08;;
54197;SDS011;40105;52.366;17.000;2023-05-19T12:38:06;16.40;;;2.00;;
54197;SDS011;40105;52.366;17.000;2023-05-19T12:40:34;9.83;;;1.80;;
54197;SDS011;40105;52.366;17.000;2023-05-19T12:43:00;4.85;;;1.50;;
54197;SDS011;40105;52.366;17.000;2023-05-19T12:45:26;7.53;;;1.80;;
54197;SDS011;40105;52.366;17.000;2023-05-19T12:47:54;4.22;;;1.60;;
54197;SDS011;40105;52.366;17.000;2023-05-19T12:50:19;6.95;;;2.10;;
54197;SDS011;40105;52.366;17.000;2023-05-19T12:52:48;50.20;;;2.87;;
54197;SDS011;40105;52.366;17.000;2023-05-19T12:55:16;3.72;;;1.90;;
54197;SDS011;40105;52.366;17.000;2023-05-19T12:57:47;5.65;;;1.63;;
54197;SDS011;40105;52.366;17.000;2023-05-19T13:05:39;3.42;;;2.05;;
54197;SDS011;40105;52.366;17.000;2023-05-19T13:08:08;5.78;;;1.83;;
54197;SDS011;40105;52.366;17.000;2023-05-19T13:10:34;3.35;;;1.95;;
54197;SDS011;40105;52.366;17.000;2023-05-19T13:13:00;14.77;;;2.78;;
54197;SDS011;40105;52.366;17.000;2023-05-19T13:15:26;3.10;;;1.77;;
54197;SDS011;40105;52.366;17.000;2023-05-19T13:17:52;3.95;;;1.75;;
54197;SDS011;40105;52.366;17.000;2023-05-19T13:20:18;4.60;;;2.33;;
54197;SDS011;40105;52.366;17.000;2023-05-19T13:22:43;4.93;;;1.92;;
54197;SDS011;40105;52.366;17.000;2023-05-19T13:25:09;5.27;;;2.03;;
54197;SDS011;40105;52.366;17.000;2023-05-19T13:27:34;13.30;;;2.65;;
54197;SDS011;40105;52.366;17.000;2023-05-19T13:30:00;4.80;;;1.77;;
54197;SDS011;40105;52.366;17.000;2023-05-19T13:32:25;4.40;;;1.90;;
54197;SDS011;40105;52.366;17.000;2023-05-19T13:34:50;9.03;;;1.97;;
54197;SDS011;40105;52.366;17.000;2023-05-19T13:37:15;10.38;;;2.45;;
54197;SDS011;40105;52.366;17.000;2023-05-19T13:39:40;5.47;;;1.97;;
54197;SDS011;40105;52.366;17.000;2023-05-19T13:42:06;7.07;;;2.40;;
54197;SDS011;40105;52.366;17.000;2023-05-19T13:44:31;11.98;;;2.88;;
54197;SDS011;40105;52.366;17.000;2023-05-19T13:46:57;5.17;;;2.17;;
54197;SDS011;40105;52.366;17.000;2023-05-19T13:49:22;5.13;;;2.40;;
54197;SDS011;40105;52.366;17.000;2023-05-19T13:51:47;9.55;;;2.47;;
54197;SDS011;40105;52.366;17.000;2023-05-19T13:54:13;15.82;;;2.78;;
54197;SDS011;40105;52.366;17.000;2023-05-19T13:56:38;4.87;;;2.13;;
54197;SDS011;40105;52.366;17.000;2023-05-19T13:59:04;12.23;;;2.87;;
54197;SDS011;40105;52.366;17.000;2023-05-19T14:01:29;8.17;;;2.33;;
54197;SDS011;40105;52.366;17.000;2023-05-19T14:03:54;4.33;;;1.97;;
54197;SDS011;40105;52.366;17.000;2023-05-19T14:06:19;3.73;;;2.43;;
54197;SDS011;40105;52.366;17.000;2023-05-19T14:08:44;4.93;;;1.97;;
54197;SDS011;40105;52.366;17.000;2023-05-19T14:11:15;6.70;;;2.00;;
54197;SDS011;40105;52.366;17.000;2023-05-19T14:13:41;5.05;;;2.40;;
54197;SDS011;40105;52.366;17.000;2023-05-19T14:16:06;6.82;;;2.85;;
54197;SDS011;40105;52.366;17.000;2023-05-19T14:18:32;6.90;;;3.15;;
54197;SDS011;40105;52.366;17.000;2023-05-19T14:20:57;16.07;;;3.57;;
54197;SDS011;40105;52.366;17.000;2023-05-19T14:23:22;14.10;;;2.40;;
54197;SDS011;40105;52.366;17.000;2023-05-19T14:25:47;7.93;;;2.30;;
54197;SDS011;40105;52.366;17.000;2023-05-19T14:28:12;7.93;;;2.27;;
54197;SDS011;40105;52.366;17.000;2023-05-19T14:30:38;4.90;;;2.20;;
54197;SDS011;40105;52.366;17.000;2023-05-19T14:33:03;6.93;;;2.37;;
54197;SDS011;40105;52.366;17.000;2023-05-19T14:35:28;31.60;;;2.63;;
54197;SDS011;40105;52.366;17.000;2023-05-19T14:37:53;6.33;;;2.23;;
54197;SDS011;40105;52.366;17.000;2023-05-19T14:40:18;6.20;;;2.20;;
54197;SDS011;40105;52.366;17.000;2023-05-19T14:42:44;8.07;;;2.58;;
54197;SDS011;40105;52.366;17.000;2023-05-19T14:45:09;8.07;;;2.13;;
54197;SDS011;40105;52.366;17.000;2023-05-19T14:47:34;5.78;;;2.90;;
54197;SDS011;40105;52.366;17.000;2023-05-19T14:50:00;6.57;;;2.70;;
54197;SDS011;40105;52.366;17.000;2023-05-19T14:52:25;5.63;;;2.10;;